createdAt,value
2022-09-15T00:02:17.103Z,51.77
2022-09-15T00:07:20.733Z,51.92
2022-09-15T00:12:25.514Z,51.74
2022-09-15T00:17:29.055Z,52.00
2022-09-15T00:22:32.570Z,52.40
2022-09-15T00:27:37.374Z,53.36
2022-09-15T00:32:40.832Z,54.05
2022-09-15T00:37:44.191Z,53.42
2022-09-15T00:42:49.119Z,54.28
2022-09-15T00:47:53.050Z,54.42
2022-09-15T00:52:59.366Z,53.54
2022-09-15T00:58:06.558Z,52.84
2022-09-15T01:03:09.942Z,52.49
2022-09-15T01:08:18.536Z,52.24
2022-09-15T01:13:23.329Z,51.63
2022-09-15T01:18:32.163Z,51.51
2022-09-15T01:24:08.586Z,51.55
2022-09-15T01:29:52.432Z,52.36
2022-09-15T01:35:00.154Z,50.99
2022-09-15T01:40:05.048Z,52.44
2022-09-15T01:45:12.195Z,53.39
2022-09-15T01:50:18.793Z,52.73
2022-09-15T01:55:24.507Z,52.28
2022-09-15T02:00:30.559Z,51.85
2022-09-15T02:05:37.087Z,51.22
2022-09-15T02:10:47.161Z,51.50
2022-09-15T02:15:54.664Z,51.73
2022-09-15T02:21:08.065Z,51.30
2022-09-15T02:26:14.623Z,51.65
2022-09-15T02:31:21.304Z,51.78
2022-09-15T02:36:25.602Z,51.51
2022-09-15T02:41:29.122Z,51.38
2022-09-15T02:46:34.025Z,51.34
2022-09-15T02:51:37.478Z,51.85
2022-09-15T02:56:41.033Z,51.42
2022-09-15T03:01:45.902Z,51.52
2022-09-15T03:06:49.376Z,50.83
2022-09-15T03:11:52.778Z,51.68
2022-09-15T03:16:58.229Z,53.00
2022-09-15T03:22:01.719Z,53.47
2022-09-15T03:27:05.989Z,53.12
2022-09-15T03:32:10.919Z,53.89
2022-09-15T03:37:14.400Z,53.59
2022-09-15T03:42:19.612Z,52.88
2022-09-15T03:47:24.418Z,54.27
2022-09-15T03:52:28.469Z,54.21
2022-09-15T03:57:31.863Z,53.89
2022-09-15T04:02:36.678Z,54.44
2022-09-15T04:07:40.196Z,54.79
2022-09-15T04:12:44.291Z,54.11
2022-09-15T04:17:49.335Z,55.10
2022-09-15T04:22:52.719Z,54.43
2022-09-15T04:27:57.346Z,55.34
2022-09-15T04:33:02.648Z,55.32
2022-09-15T04:38:06.279Z,54.79
2022-09-15T04:43:09.677Z,54.08
2022-09-15T04:48:14.530Z,54.48
2022-09-15T04:53:18.144Z,54.75
2022-09-15T04:58:21.502Z,55.15
2022-09-15T05:03:26.303Z,54.44
2022-09-15T05:08:29.987Z,54.49
2022-09-15T05:13:34.270Z,55.12
2022-09-15T05:18:39.415Z,55.21
2022-09-15T05:23:43.678Z,55.19
2022-09-15T05:28:47.342Z,55.09
2022-09-15T05:33:52.977Z,56.41
2022-09-15T05:38:57.419Z,56.53
2022-09-15T05:44:00.838Z,56.19
2022-09-15T05:49:07.433Z,55.45
2022-09-15T05:54:11.296Z,55.13
2022-09-15T05:59:14.862Z,54.87
2022-09-15T06:04:19.611Z,54.78
2022-09-15T06:09:23.266Z,54.66
2022-09-15T06:14:26.833Z,55.14
2022-09-15T06:19:31.605Z,54.21
2022-09-15T06:24:34.947Z,53.92
2022-09-15T06:29:38.294Z,56.35
2022-09-15T06:34:43.017Z,55.43
2022-09-15T06:39:46.402Z,54.94
2022-09-15T06:44:50.143Z,56.30
2022-09-15T06:49:55.669Z,54.68
2022-09-15T06:54:59.028Z,54.23
2022-09-15T07:00:02.921Z,54.82
2022-09-15T07:05:08.411Z,53.25
2022-09-15T07:10:11.729Z,53.99
2022-09-15T07:15:15.176Z,52.76
2022-09-15T07:20:19.964Z,53.07
2022-09-15T07:25:23.355Z,54.58
2022-09-15T07:30:26.694Z,52.80
2022-09-15T07:35:31.505Z,51.57
2022-09-15T07:40:35.054Z,51.60
2022-09-15T07:45:38.541Z,50.30
2022-09-15T07:50:47.266Z,50.86
2022-09-15T07:55:53.218Z,48.75
2022-09-15T08:01:02.625Z,49.90
2022-09-15T08:06:07.863Z,49.63
2022-09-15T08:11:18.438Z,49.08
2022-09-15T08:16:24.713Z,49.69
2022-09-15T08:21:29.883Z,47.96
2022-09-15T08:26:33.310Z,47.01
2022-09-15T08:31:36.756Z,45.64
2022-09-15T08:36:41.750Z,47.36
2022-09-15T08:41:46.765Z,46.62
2022-09-15T08:46:53.993Z,46.45
2022-09-15T08:52:04.742Z,44.61
2022-09-15T08:57:12.783Z,44.40
2022-09-15T09:02:47.624Z,44.32
2022-09-15T09:08:08.756Z,46.41
2022-09-15T09:13:21.667Z,44.31
2022-09-15T09:18:49.746Z,44.22
2022-09-15T09:23:58.471Z,43.90
2022-09-15T09:29:03.014Z,43.85
2022-09-15T09:34:13.052Z,43.58
2022-09-15T09:39:17.749Z,42.90
2022-09-15T09:44:31.530Z,41.29
2022-09-15T09:49:36.022Z,42.46
2022-09-15T09:54:42.194Z,41.61
2022-09-15T09:59:47.150Z,40.49
2022-09-15T10:04:52.656Z,39.60
2022-09-15T10:09:59.356Z,39.55
2022-09-15T10:15:05.556Z,38.92
2022-09-15T10:20:28.169Z,37.70
2022-09-15T10:25:58.653Z,37.87
2022-09-15T10:31:03.977Z,37.25
2022-09-15T10:36:12.397Z,38.67
2022-09-15T10:41:23.455Z,38.17
2022-09-15T10:46:29.207Z,38.88
2022-09-15T10:51:43.164Z,38.91
2022-09-15T10:56:50.281Z,42.48
2022-09-15T11:02:20.578Z,43.63
2022-09-15T11:07:30.515Z,42.56
2022-09-15T11:12:44.838Z,40.87
2022-09-15T11:18:04.192Z,38.98
2022-09-15T11:23:12.935Z,38.60
2022-09-15T11:28:21.335Z,38.12
2022-09-15T11:33:29.009Z,38.75
2022-09-15T11:38:37.049Z,37.87
2022-09-15T11:43:46.195Z,36.61
2022-09-15T11:48:54.345Z,34.68
2022-09-15T11:54:02.699Z,36.68
2022-09-15T11:59:16.026Z,35.42
2022-09-15T12:04:23.327Z,38.48
2022-09-15T12:09:26.923Z,40.61
2022-09-15T12:14:33.991Z,43.80
2022-09-15T12:19:51.561Z,40.67
2022-09-15T12:25:01.314Z,41.82
2022-09-15T12:30:07.649Z,42.14
2022-09-15T12:35:33.125Z,44.56
2022-09-15T12:40:37.884Z,42.63
2022-09-15T12:45:44.934Z,41.66
2022-09-15T12:50:54.441Z,40.19
2022-09-15T12:55:59.856Z,41.05
2022-09-15T13:01:34.341Z,38.31
2022-09-15T13:06:38.435Z,37.00
2022-09-15T13:11:43.047Z,35.41
2022-09-15T13:16:53.771Z,35.63
2022-09-15T13:22:00.292Z,37.65
2022-09-15T13:27:04.842Z,37.46
2022-09-15T13:32:17.093Z,37.86
2022-09-15T13:43:10.043Z,36.39
2022-09-15T13:48:49.776Z,37.54
2022-09-15T13:53:54.775Z,38.14
2022-09-15T13:59:09.901Z,36.57
2022-09-15T14:04:17.877Z,36.51
2022-09-15T14:09:24.977Z,36.69
2022-09-15T14:14:37.093Z,36.67
2022-09-15T14:19:43.368Z,35.02
2022-09-15T14:24:48.152Z,35.81
2022-09-15T14:29:55.130Z,32.91
2022-09-15T14:35:00.883Z,33.72
2022-09-15T14:40:19.200Z,33.96
2022-09-15T14:50:59.325Z,33.56
2022-09-15T14:56:08.212Z,33.88
2022-09-15T15:01:15.615Z,35.23
2022-09-15T15:06:30.504Z,34.64
2022-09-15T15:11:34.847Z,35.25
2022-09-15T15:16:38.325Z,33.00
2022-09-15T15:21:44.560Z,34.10
2022-09-15T15:26:49.013Z,34.15
2022-09-15T15:31:52.842Z,34.67
2022-09-15T15:37:04.673Z,36.01
2022-09-15T15:42:08.979Z,39.04
2022-09-15T15:47:25.511Z,37.78
2022-09-15T15:52:30.289Z,37.88
2022-09-15T15:57:36.147Z,38.71
2022-09-15T16:02:39.533Z,37.02
2022-09-15T16:07:46.167Z,37.56
2022-09-15T16:12:49.666Z,35.87
2022-09-15T16:17:53.179Z,35.45
2022-09-15T16:22:58.076Z,36.81
2022-09-15T16:28:01.879Z,37.65
2022-09-15T16:33:05.437Z,36.79
2022-09-15T16:38:10.290Z,36.37
2022-09-15T16:43:14.559Z,37.43
2022-09-15T16:48:18.040Z,36.91
2022-09-15T16:53:23.231Z,37.61
2022-09-15T16:58:26.806Z,38.19
2022-09-15T17:03:30.535Z,38.01
2022-09-15T17:08:35.378Z,38.32
2022-09-15T17:13:38.762Z,39.03
2022-09-15T17:18:42.144Z,39.33
2022-09-15T17:23:48.337Z,38.50
2022-09-15T17:28:51.843Z,38.52
2022-09-15T17:33:55.249Z,38.87
2022-09-15T17:39:00.090Z,37.88
2022-09-15T17:44:03.554Z,39.01
2022-09-15T17:49:06.898Z,38.09
2022-09-15T17:54:12.217Z,40.38
2022-09-15T17:59:16.286Z,40.87
2022-09-15T18:04:19.915Z,41.53
2022-09-15T18:09:25.235Z,44.94
2022-09-15T18:14:28.566Z,45.57
2022-09-15T18:19:32.074Z,44.26
2022-09-15T18:24:36.788Z,45.35
2022-09-15T18:29:40.159Z,47.60
2022-09-15T18:34:43.577Z,48.57
2022-09-15T18:39:48.301Z,48.48
2022-09-15T18:44:51.867Z,48.98
2022-09-15T18:49:55.376Z,48.48
2022-09-15T18:55:00.378Z,48.47
2022-09-15T19:00:04.960Z,48.09
2022-09-15T19:05:11.128Z,48.07
2022-09-15T19:10:17.281Z,49.05
2022-09-15T19:15:23.754Z,48.56
2022-09-15T19:20:27.381Z,48.50
2022-09-15T19:25:32.112Z,48.50
2022-09-15T19:30:35.910Z,48.47
2022-09-15T19:35:42.429Z,49.41
2022-09-15T19:40:47.431Z,49.01
2022-09-15T19:45:50.818Z,49.78
2022-09-15T19:50:54.590Z,50.10
2022-09-15T19:55:59.339Z,50.27
2022-09-15T20:01:03.048Z,49.95
2022-09-15T20:06:08.304Z,51.45
2022-09-15T20:11:13.088Z,50.24
2022-09-15T20:16:18.131Z,50.12
2022-09-15T20:21:45.827Z,50.26
2022-09-15T20:26:48.399Z,50.13
2022-09-15T20:31:52.247Z,51.55
2022-09-15T20:36:55.646Z,50.44
2022-09-15T20:42:00.417Z,49.94
2022-09-15T20:47:03.851Z,49.85
2022-09-15T20:52:07.472Z,50.33
2022-09-15T20:57:12.269Z,49.12
2022-09-15T21:02:15.695Z,51.34
2022-09-15T21:07:19.182Z,50.96
2022-09-15T21:12:24.041Z,52.42
2022-09-15T21:17:28.907Z,52.22
2022-09-15T21:22:32.379Z,53.59
2022-09-15T21:27:37.532Z,53.52
2022-09-15T21:32:40.879Z,53.24
2022-09-15T21:37:44.195Z,52.48
2022-09-15T21:42:49.406Z,53.43
2022-09-15T21:47:52.978Z,53.09
2022-09-15T21:52:56.366Z,51.04
2022-09-15T21:58:01.207Z,51.69
2022-09-15T22:03:04.796Z,51.27
2022-09-15T22:08:10.366Z,52.53
2022-09-15T22:13:15.116Z,52.09
2022-09-15T22:18:18.612Z,52.54
2022-09-15T22:23:22.011Z,52.26
2022-09-15T22:28:26.841Z,51.54
2022-09-15T22:33:30.718Z,53.84
2022-09-15T22:38:34.072Z,52.15
2022-09-15T22:43:39.272Z,51.76
2022-09-15T22:48:43.725Z,51.50
2022-09-15T22:53:47.348Z,54.02
2022-09-15T22:58:52.016Z,52.11
2022-09-15T23:03:57.178Z,52.25
2022-09-15T23:09:03.210Z,50.70
2022-09-15T23:14:09.044Z,51.79
2022-09-15T23:19:13.073Z,51.92
2022-09-15T23:24:16.992Z,51.09
2022-09-15T23:29:23.043Z,50.63
2022-09-15T23:34:26.460Z,51.04
2022-09-15T23:39:29.957Z,51.54
2022-09-15T23:44:34.741Z,52.96
2022-09-15T23:49:38.173Z,51.05
2022-09-15T23:54:41.622Z,51.20
2022-09-15T23:59:46.395Z,51.19
